Time;durP1;ratioP1;P1;durP2;ratioP2;P2;SDS_P1;SDS_P2;PMS_P1;PMS_P2;Temp;Humidity;BMP_temperature;BMP_pressure;BME280_temperature;BME280_humidity;BME280_pressure;Samples;Min_cycle;Max_cycle;Signal;HPM_P1;HPM_P2
2023/09/17 00:00:52;;;;;;;12.27;7.90;;;20.20;99.90;;;;;;5014809;28;20603;-68
2023/09/17 00:03:20;;;;;;;11.33;6.80;;;20.10;99.90;;;;;;5012748;28;20445;-68
2023/09/17 00:05:48;;;;;;;11.20;6.60;;;19.90;99.90;;;;;;5016787;28;20445;-68
2023/09/17 00:08:15;;;;;;;11.83;7.10;;;19.80;99.90;;;;;;5012723;28;20523;-68
2023/09/17 00:10:45;;;;;;;14.13;9.50;;;19.80;99.90;;;;;;5020922;28;20467;-68
2023/09/17 00:13:13;;;;;;;13.23;7.27;;;19.80;99.90;;;;;;5006698;28;20446;-68
2023/09/17 00:15:41;;;;;;;11.47;6.20;;;19.80;99.90;;;;;;5022080;28;20540;-67
2023/09/17 00:18:09;;;;;;;11.60;6.33;;;19.60;99.90;;;;;;5011301;28;20465;-68
2023/09/17 00:20:37;;;;;;;11.70;7.13;;;19.50;99.90;;;;;;5024706;28;20563;-67
2023/09/17 00:23:05;;;;;;;11.30;6.97;;;19.30;99.90;;;;;;5014267;28;20524;-67
2023/09/17 00:25:33;;;;;;;10.63;6.20;;;19.10;99.90;;;;;;5007319;28;20445;-67
2023/09/17 00:28:03;;;;;;;11.50;6.40;;;19.00;99.90;;;;;;5013231;28;20633;-66
2023/09/17 00:30:31;;;;;;;14.93;7.63;;;18.90;99.90;;;;;;5014629;28;20440;-68
2023/09/17 00:32:59;;;;;;;13.13;8.10;;;18.90;99.90;;;;;;5006478;28;20434;-67
2023/09/17 00:35:27;;;;;;;16.00;8.40;;;18.90;99.90;;;;;;5008892;28;20446;-67
2023/09/17 00:37:55;;;;;;;11.50;7.17;;;19.00;99.90;;;;;;5016770;28;20977;-68
2023/09/17 00:40:28;;;;;;;11.77;6.60;;;19.10;99.90;;;;;;5019645;28;20477;-69
2023/09/17 00:42:56;;;;;;;13.30;8.07;;;19.10;99.90;;;;;;5011733;28;20510;-67
2023/09/17 00:45:26;;;;;;;13.93;8.73;;;19.10;99.90;;;;;;5011213;28;20460;-68
2023/09/17 00:47:55;;;;;;;12.17;7.30;;;19.00;99.90;;;;;;5011032;28;20474;-68
2023/09/17 00:50:23;;;;;;;12.30;8.60;;;18.90;99.90;;;;;;5012334;28;20587;-68
2023/09/17 00:52:51;;;;;;;11.30;7.30;;;18.70;99.90;;;;;;5012074;28;20874;-68
2023/09/17 00:55:20;;;;;;;11.83;7.20;;;18.60;99.90;;;;;;5018249;28;20450;-69
2023/09/17 00:57:48;;;;;;;11.90;6.10;;;18.50;99.90;;;;;;5018666;28;20481;-70
2023/09/17 01:00:20;;;;;;;12.60;8.87;;;18.40;99.90;;;;;;5019323;28;20576;-70
2023/09/17 01:02:50;;;;;;;12.93;7.60;;;18.30;99.90;;;;;;5018921;28;20446;-68
2023/09/17 01:05:19;;;;;;;13.47;7.60;;;18.30;99.90;;;;;;5018212;28;20473;-68
2023/09/17 01:07:48;;;;;;;11.60;7.20;;;18.30;99.90;;;;;;5012390;28;20466;-68
2023/09/17 01:10:16;;;;;;;12.60;7.63;;;18.30;99.90;;;;;;5027716;28;20438;-69
2023/09/17 01:12:44;;;;;;;19.30;8.27;;;18.30;99.90;;;;;;5034405;28;20441;-69
2023/09/17 01:15:12;;;;;;;11.10;6.53;;;18.30;99.90;;;;;;5016887;28;20526;-68
2023/09/17 01:17:40;;;;;;;11.57;7.10;;;18.20;99.90;;;;;;5013101;28;20465;-68
2023/09/17 01:20:25;;;;;;;11.20;7.07;;;18.10;99.90;;;;;;5005307;28;20441;-68
2023/09/17 01:22:59;;;;;;;12.30;8.20;;;18.00;99.90;;;;;;5013296;28;20441;-70
2023/09/17 01:25:42;;;;;;;12.60;7.90;;;18.20;99.90;;;;;;5013274;28;20485;-69
2023/09/17 01:28:13;;;;;;;12.70;8.00;;;18.10;99.90;;;;;;5004717;28;21035;-67
2023/09/17 01:30:41;;;;;;;12.67;8.20;;;18.20;99.90;;;;;;5012929;28;20448;-69
2023/09/17 01:33:12;;;;;;;13.60;8.40;;;18.20;99.90;;;;;;5004870;28;20453;-67
2023/09/17 01:35:49;;;;;;;12.90;7.90;;;18.00;99.90;;;;;;5012320;28;20453;-69
2023/09/17 01:38:20;;;;;;;12.73;8.07;;;18.00;99.90;;;;;;5011508;28;20465;-69
2023/09/17 01:40:50;;;;;;;13.00;7.70;;;18.00;99.90;;;;;;5011985;28;20892;-68
2023/09/17 01:43:20;;;;;;;13.60;8.47;;;18.00;99.90;;;;;;5014671;28;20940;-67
2023/09/17 01:45:50;;;;;;;14.13;7.80;;;17.90;99.90;;;;;;5012061;28;20442;-69
2023/09/17 01:48:20;;;;;;;13.60;7.30;;;17.90;99.90;;;;;;5011359;28;20524;-69
2023/09/17 01:50:50;;;;;;;11.93;7.10;;;18.00;99.90;;;;;;5015760;28;20438;-68
2023/09/17 01:53:18;;;;;;;15.73;7.43;;;18.10;99.90;;;;;;5025018;28;20453;-69
2023/09/17 01:55:46;;;;;;;12.73;8.70;;;18.20;99.90;;;;;;5010455;28;20453;-69
2023/09/17 01:58:16;;;;;;;13.00;7.27;;;18.20;99.90;;;;;;5011289;28;20527;-69
2023/09/17 02:00:45;;;;;;;14.30;8.67;;;18.20;99.90;;;;;;5011647;28;20572;-66
2023/09/17 02:03:13;;;;;;;12.50;8.50;;;18.20;99.90;;;;;;5011236;28;20823;-68
2023/09/17 02:05:41;;;;;;;11.77;7.47;;;18.10;99.90;;;;;;5012042;28;20453;-69
2023/09/17 02:08:09;;;;;;;11.47;6.83;;;18.20;99.90;;;;;;5011212;28;20470;-68
2023/09/17 02:10:37;;;;;;;11.60;7.33;;;18.30;99.90;;;;;;5011807;28;20449;-67
2023/09/17 02:13:05;;;;;;;11.93;8.10;;;18.30;99.90;;;;;;5011437;28;20446;-67
2023/09/17 02:15:33;;;;;;;13.03;8.20;;;18.30;99.90;;;;;;5011772;28;20446;-67
2023/09/17 02:18:03;;;;;;;11.20;7.30;;;18.50;99.90;;;;;;5010866;28;20478;-66
2023/09/17 02:20:31;;;;;;;11.93;8.17;;;18.50;99.90;;;;;;5010963;28;20458;-68
2023/09/17 02:22:59;;;;;;;11.73;8.13;;;18.40;99.90;;;;;;5011418;28;20829;-66
2023/09/17 02:25:27;;;;;;;11.80;7.43;;;18.50;99.90;;;;;;5011741;28;20528;-67
2023/09/17 02:27:55;;;;;;;11.40;6.87;;;18.40;99.90;;;;;;5009785;28;20494;-67
2023/09/17 02:30:23;;;;;;;13.10;7.60;;;18.40;99.90;;;;;;5011375;28;20506;-67
2023/09/17 02:32:50;;;;;;;12.37;7.83;;;18.30;99.90;;;;;;5010961;28;20892;-67
2023/09/17 02:35:21;;;;;;;12.03;7.80;;;18.20;99.90;;;;;;5011215;28;20442;-67
2023/09/17 02:37:49;;;;;;;12.20;8.20;;;18.30;99.90;;;;;;5010218;28;20474;-67
2023/09/17 02:40:17;;;;;;;12.20;7.43;;;18.30;99.90;;;;;;5010537;28;20442;-67
2023/09/17 02:42:45;;;;;;;12.57;7.87;;;18.40;99.90;;;;;;5010291;28;21084;-67
2023/09/17 02:45:13;;;;;;;14.33;8.10;;;18.30;99.90;;;;;;5010306;28;20477;-66
2023/09/17 02:47:41;;;;;;;13.83;8.60;;;18.30;99.90;;;;;;5010311;28;20545;-67
2023/09/17 02:50:10;;;;;;;11.77;7.77;;;18.20;99.90;;;;;;5009881;28;20827;-66
2023/09/17 02:52:40;;;;;;;12.60;8.07;;;18.00;99.90;;;;;;5010651;28;20573;-67
2023/09/17 02:55:08;;;;;;;12.27;7.80;;;18.00;99.90;;;;;;5010003;28;20452;-68
2023/09/17 02:57:36;;;;;;;12.10;7.27;;;17.90;99.90;;;;;;5009155;28;20848;-69
2023/09/17 03:00:08;;;;;;;12.83;8.50;;;17.80;99.90;;;;;;5010197;28;20457;-69
2023/09/17 03:02:36;;;;;;;13.43;8.40;;;17.70;99.90;;;;;;5010491;28;20493;-68
2023/09/17 03:05:05;;;;;;;13.17;8.13;;;17.60;99.90;;;;;;5010337;28;20453;-69
2023/09/17 03:07:33;;;;;;;12.83;8.17;;;17.50;99.90;;;;;;5009656;28;20469;-67
2023/09/17 03:10:07;;;;;;;12.40;7.77;;;17.50;99.90;;;;;;5008670;28;20450;-68
2023/09/17 03:12:35;;;;;;;14.20;8.30;;;17.30;99.90;;;;;;5009907;28;20962;-68
2023/09/17 03:15:05;;;;;;;12.30;8.07;;;17.50;99.90;;;;;;5010418;28;20519;-68
2023/09/17 03:17:32;;;;;;;13.10;8.93;;;17.40;99.90;;;;;;5009950;28;20466;-68
2023/09/17 03:20:09;;;;;;;15.33;8.90;;;17.40;99.90;;;;;;5010076;28;20450;-68
2023/09/17 03:22:37;;;;;;;12.07;7.73;;;17.40;99.90;;;;;;5010443;28;20485;-69
2023/09/17 03:25:07;;;;;;;14.17;7.83;;;17.40;99.90;;;;;;5010240;28;20452;-68
2023/09/17 03:27:35;;;;;;;14.70;9.23;;;17.50;99.90;;;;;;5009843;28;20466;-68
2023/09/17 03:30:04;;;;;;;13.80;8.00;;;17.30;99.90;;;;;;5009653;28;20450;-68
2023/09/17 03:32:33;;;;;;;12.70;9.00;;;17.20;99.90;;;;;;5008867;28;20446;-68
2023/09/17 03:35:01;;;;;;;12.27;7.90;;;17.20;99.90;;;;;;5010126;28;20503;-69
2023/09/17 03:37:30;;;;;;;12.97;8.07;;;17.10;99.90;;;;;;5010194;28;20492;-68
2023/09/17 03:40:11;;;;;;;12.70;8.40;;;17.10;99.90;;;;;;5010640;28;20453;-68
2023/09/17 03:42:40;;;;;;;13.83;8.20;;;17.00;99.90;;;;;;5009983;28;20485;-68
2023/09/17 03:45:10;;;;;;;14.60;8.60;;;17.00;99.90;;;;;;5010151;28;20525;-68
2023/09/17 03:47:39;;;;;;;13.00;7.53;;;17.00;99.90;;;;;;5009645;28;20516;-68
2023/09/17 03:50:08;;;;;;;14.30;8.60;;;17.10;99.90;;;;;;5009903;28;20450;-68
2023/09/17 03:52:37;;;;;;;12.20;7.90;;;17.10;99.90;;;;;;5009508;28;20902;-67
2023/09/17 03:55:07;;;;;;;14.17;8.00;;;17.10;99.90;;;;;;5008871;28;20532;-69
2023/09/17 03:57:38;;;;;;;13.20;8.03;;;17.00;99.90;;;;;;5009007;28;20472;-68
2023/09/17 04:00:09;;;;;;;14.07;7.90;;;17.00;99.90;;;;;;5009531;28;20492;-68
2023/09/17 04:02:37;;;;;;;12.93;7.23;;;16.90;99.90;;;;;;5009740;28;21027;-69
2023/09/17 04:05:08;;;;;;;13.20;8.77;;;16.80;99.90;;;;;;5009411;28;20450;-69
2023/09/17 04:07:37;;;;;;;13.87;8.53;;;16.80;99.90;;;;;;5008158;28;20478;-68
2023/09/17 04:10:06;;;;;;;15.13;9.37;;;16.80;99.90;;;;;;5008895;28;20450;-68
2023/09/17 04:12:35;;;;;;;13.93;9.40;;;16.80;99.90;;;;;;5007656;28;20532;-68
2023/09/17 04:15:12;;;;;;;15.60;8.20;;;16.80;99.90;;;;;;5007867;28;20500;-68
2023/09/17 04:17:40;;;;;;;14.70;8.13;;;16.70;99.90;;;;;;5008518;28;20972;-68
2023/09/17 04:20:13;;;;;;;14.40;9.03;;;16.60;99.90;;;;;;5009207;28;20445;-69
2023/09/17 04:22:42;;;;;;;15.30;8.60;;;16.60;99.90;;;;;;5009602;28;20863;-68
2023/09/17 04:25:12;;;;;;;13.50;8.77;;;16.60;99.90;;;;;;5009165;28;20446;-68
2023/09/17 04:27:41;;;;;;;13.50;8.90;;;16.50;99.90;;;;;;5008944;28;20466;-68
2023/09/17 04:30:13;;;;;;;15.60;10.57;;;16.60;99.90;;;;;;5014515;28;20830;-68
2023/09/17 04:32:42;;;;;;;15.00;10.10;;;16.70;99.90;;;;;;5008307;28;20477;-69
2023/09/17 04:35:12;;;;;;;13.93;9.27;;;16.70;99.90;;;;;;5008045;28;20450;-69
2023/09/17 04:37:41;;;;;;;15.17;9.33;;;16.60;99.90;;;;;;5007709;28;20594;-69
2023/09/17 04:40:11;;;;;;;17.13;10.00;;;16.60;99.90;;;;;;5011959;28;21051;-68
2023/09/17 04:42:40;;;;;;;15.77;10.27;;;16.50;99.90;;;;;;5013833;28;20496;-69
2023/09/17 04:45:11;;;;;;;14.33;9.20;;;16.50;99.90;;;;;;5008970;28;21434;-69
2023/09/17 04:47:40;;;;;;;16.50;9.40;;;16.50;99.90;;;;;;5009034;28;20977;-68
2023/09/17 04:50:09;;;;;;;13.73;9.60;;;16.70;99.90;;;;;;5008653;28;20539;-67
2023/09/17 04:52:37;;;;;;;14.07;8.70;;;16.60;99.90;;;;;;5009003;28;20453;-68
2023/09/17 04:55:06;;;;;;;18.53;10.70;;;16.50;99.90;;;;;;5007856;28;20453;-68
2023/09/17 04:57:35;;;;;;;14.97;9.77;;;16.40;99.90;;;;;;5008244;28;20506;-68
2023/09/17 05:00:10;;;;;;;13.53;9.07;;;16.50;99.90;;;;;;5009288;28;20474;-68
2023/09/17 05:02:40;;;;;;;16.63;9.70;;;16.50;99.90;;;;;;5009297;28;20485;-68
2023/09/17 05:05:09;;;;;;;13.07;8.93;;;16.50;99.90;;;;;;5009425;28;20529;-68
2023/09/17 05:07:39;;;;;;;12.70;8.70;;;16.40;99.90;;;;;;5008145;28;20466;-68
2023/09/17 05:10:09;;;;;;;14.93;9.83;;;16.40;99.90;;;;;;5008993;28;20941;-68
2023/09/17 05:12:37;;;;;;;13.90;9.37;;;16.60;99.90;;;;;;5009290;28;20522;-68
2023/09/17 05:15:05;;;;;;;13.20;7.77;;;16.60;99.90;;;;;;5009132;28;20453;-69
2023/09/17 05:17:33;;;;;;;13.17;8.17;;;16.70;99.90;;;;;;5008887;28;20462;-66
2023/09/17 05:20:05;;;;;;;20.63;8.50;;;16.80;99.90;;;;;;5008959;28;20485;-69
2023/09/17 05:22:34;;;;;;;14.80;8.93;;;16.90;99.90;;;;;;5009435;28;20485;-67
2023/09/17 05:25:03;;;;;;;15.03;8.40;;;16.90;99.90;;;;;;5012077;28;20949;-68
2023/09/17 05:27:32;;;;;;;13.43;8.23;;;16.90;99.90;;;;;;5011955;28;20535;-68
2023/09/17 05:30:00;;;;;;;13.83;8.67;;;17.00;99.90;;;;;;5012460;28;20453;-68
2023/09/17 05:32:29;;;;;;;12.20;8.60;;;16.90;99.90;;;;;;5011774;28;21037;-68
2023/09/17 05:34:59;;;;;;;13.73;8.70;;;16.90;99.90;;;;;;5012588;28;20450;-68
2023/09/17 05:37:29;;;;;;;13.53;7.60;;;17.00;99.90;;;;;;5011987;28;20477;-68
2023/09/17 05:39:58;;;;;;;13.30;8.27;;;17.10;99.90;;;;;;5012339;28;20468;-68
2023/09/17 05:42:26;;;;;;;13.67;8.40;;;17.20;99.90;;;;;;5012025;28;20454;-68
2023/09/17 05:44:54;;;;;;;12.87;8.80;;;17.10;99.90;;;;;;5012319;28;20457;-68
2023/09/17 05:47:22;;;;;;;13.77;8.10;;;17.10;99.90;;;;;;5011346;28;20465;-67
2023/09/17 05:49:50;;;;;;;13.50;8.23;;;17.10;99.90;;;;;;5012481;28;20456;-69
2023/09/17 05:52:18;;;;;;;13.10;7.87;;;17.20;99.90;;;;;;5012320;28;20525;-68
2023/09/17 05:54:47;;;;;;;14.73;7.60;;;17.30;99.90;;;;;;5011048;28;20438;-68
2023/09/17 05:57:16;;;;;;;12.47;7.53;;;17.40;99.90;;;;;;5002764;28;20515;-68
2023/09/17 05:59:44;;;;;;;13.20;8.47;;;17.40;99.90;;;;;;5012223;28;20443;-67
2023/09/17 06:02:12;;;;;;;13.27;8.20;;;17.30;99.90;;;;;;5011828;28;21087;-67
2023/09/17 06:04:41;;;;;;;11.93;7.23;;;17.40;99.90;;;;;;5012060;28;20604;-68
2023/09/17 06:07:09;;;;;;;14.83;9.30;;;17.40;99.90;;;;;;5010957;28;20453;-67
2023/09/17 06:09:37;;;;;;;15.07;9.80;;;17.40;99.90;;;;;;5011277;28;20508;-68
2023/09/17 06:12:07;;;;;;;12.60;8.13;;;17.50;99.90;;;;;;5010692;28;20450;-68
2023/09/17 06:14:35;;;;;;;14.93;9.90;;;17.50;99.90;;;;;;5011183;28;20496;-69
2023/09/17 06:17:03;;;;;;;14.40;9.53;;;17.60;99.90;;;;;;5011108;28;20450;-67
2023/09/17 06:19:33;;;;;;;13.90;9.20;;;17.70;99.90;;;;;;5011517;28;20457;-68
2023/09/17 06:22:01;;;;;;;12.43;8.23;;;17.70;99.90;;;;;;5011697;28;20486;-69
2023/09/17 06:24:29;;;;;;;12.67;7.97;;;17.80;99.90;;;;;;5011456;28;20481;-69
2023/09/17 06:26:57;;;;;;;13.40;8.40;;;17.90;99.90;;;;;;5011020;28;20478;-69
2023/09/17 06:29:26;;;;;;;12.70;7.80;;;18.00;99.90;;;;;;5011484;28;20472;-70
2023/09/17 06:31:54;;;;;;;14.20;7.67;;;18.10;99.90;;;;;;5011166;28;20446;-68
2023/09/17 06:34:23;;;;;;;11.87;7.07;;;18.10;99.90;;;;;;5011434;28;20541;-68
2023/09/17 06:36:50;;;;;;;12.43;7.67;;;18.20;99.90;;;;;;5010384;28;20553;-69
2023/09/17 06:39:18;;;;;;;12.27;7.57;;;18.30;99.90;;;;;;5010841;28;21015;-68
2023/09/17 06:41:46;;;;;;;13.00;8.70;;;18.30;99.90;;;;;;5011570;28;20464;-69
2023/09/17 06:44:14;;;;;;;12.87;8.67;;;18.40;99.90;;;;;;5011202;28;20482;-69
2023/09/17 06:46:44;;;;;;;12.70;8.33;;;18.40;99.90;;;;;;5010438;28;20544;-69
2023/09/17 06:49:12;;;;;;;12.67;7.73;;;18.50;99.90;;;;;;5011156;28;20536;-70
2023/09/17 06:51:40;;;;;;;13.87;7.80;;;18.60;99.90;;;;;;5011232;28;20851;-69
2023/09/17 06:54:08;;;;;;;12.83;8.20;;;18.70;99.90;;;;;;5009709;28;21195;-68
2023/09/17 06:56:36;;;;;;;13.27;7.80;;;18.80;99.90;;;;;;5010713;28;20489;-69
2023/09/17 06:59:05;;;;;;;12.00;8.27;;;18.90;99.90;;;;;;5010299;28;20470;-70
2023/09/17 07:01:33;;;;;;;12.70;8.10;;;19.10;99.90;;;;;;5010591;28;20453;-69
2023/09/17 07:04:03;;;;;;;12.03;8.00;;;19.30;99.90;;;;;;5010787;28;20489;-69
2023/09/17 07:06:31;;;;;;;14.57;8.20;;;19.40;99.90;;;;;;5010384;28;20449;-69
2023/09/17 07:08:58;;;;;;;12.60;8.13;;;19.50;99.90;;;;;;5010112;28;20555;-69
2023/09/17 07:11:26;;;;;;;13.40;7.27;;;19.70;99.90;;;;;;5009541;28;20572;-70
2023/09/17 07:13:55;;;;;;;11.73;7.77;;;19.90;99.90;;;;;;5009895;28;21199;-69
2023/09/17 07:16:27;;;;;;;13.03;7.50;;;20.00;99.90;;;;;;5009436;28;20446;-69
2023/09/17 07:18:55;;;;;;;11.37;7.00;;;20.30;99.90;;;;;;5009990;28;20504;-70
2023/09/17 07:21:24;;;;;;;11.50;7.10;;;20.50;99.90;;;;;;5010600;28;20446;-69
2023/09/17 07:23:52;;;;;;;12.03;6.97;;;20.70;99.90;;;;;;5009945;28;20568;-69
2023/09/17 07:26:20;;;;;;;10.70;6.77;;;20.80;99.90;;;;;;5002230;28;20468;-70
2023/09/17 07:28:48;;;;;;;10.97;7.23;;;20.80;99.90;;;;;;5010272;28;20469;-68
2023/09/17 07:31:16;;;;;;;11.87;7.43;;;20.90;99.90;;;;;;5010401;28;20500;-69
2023/09/17 07:33:44;;;;;;;13.03;7.30;;;20.90;99.90;;;;;;5010283;28;20469;-68
2023/09/17 07:36:13;;;;;;;11.07;6.60;;;20.90;99.90;;;;;;5009787;28;20935;-69
2023/09/17 07:38:43;;;;;;;10.60;6.30;;;20.90;99.90;;;;;;5010111;28;20477;-69
2023/09/17 07:41:10;;;;;;;10.93;6.47;;;21.00;99.90;;;;;;5009263;28;20515;-69
2023/09/17 07:43:38;;;;;;;11.20;6.33;;;21.10;99.90;;;;;;5018465;28;20469;-69
2023/09/17 07:46:11;;;;;;;11.00;6.73;;;21.20;99.90;;;;;;5008730;28;20450;-69
2023/09/17 07:48:39;;;;;;;10.67;7.20;;;21.20;99.90;;;;;;5009582;28;20541;-68
2023/09/17 07:51:07;;;;;;;11.27;6.63;;;21.40;99.90;;;;;;5010024;28;20933;-69
2023/09/17 07:53:35;;;;;;;11.13;6.00;;;21.50;99.90;;;;;;5009675;28;20464;-69
2023/09/17 07:56:04;;;;;;;11.20;5.50;;;21.70;99.90;;;;;;5009578;28;20490;-69
2023/09/17 07:58:32;;;;;;;9.90;5.70;;;21.90;99.90;;;;;;5009207;28;20480;-68
2023/09/17 08:01:01;;;;;;;10.20;5.80;;;22.10;99.90;;;;;;5009014;28;20442;-71
2023/09/17 08:03:29;;;;;;;10.90;5.60;;;22.30;99.90;;;;;;5010034;28;20582;-69
2023/09/17 08:05:57;;;;;;;10.40;6.20;;;22.50;99.90;;;;;;5009216;28;20489;-68
2023/09/17 08:08:26;;;;;;;11.43;5.53;;;22.60;99.90;;;;;;5009268;28;20616;-71
2023/09/17 08:10:54;;;;;;;9.60;5.50;;;22.80;99.90;;;;;;5009297;28;20449;-69
2023/09/17 08:13:23;;;;;;;9.93;5.37;;;23.00;99.90;;;;;;5009250;28;20449;-70
2023/09/17 08:15:51;;;;;;;9.40;5.10;;;23.00;99.90;;;;;;5009677;28;20461;-67
2023/09/17 08:18:19;;;;;;;9.60;5.60;;;22.90;99.90;;;;;;5008837;28;21012;-69
2023/09/17 08:20:47;;;;;;;10.87;5.47;;;23.00;99.90;;;;;;5009438;28;20507;-70
2023/09/17 08:23:16;;;;;;;9.43;5.30;;;23.10;99.90;;;;;;5008727;28;20442;-70
2023/09/17 08:25:44;;;;;;;8.70;4.40;;;23.20;99.90;;;;;;5009449;28;20494;-69
2023/09/17 08:28:15;;;;;;;10.43;5.80;;;23.20;99.90;;;;;;5008651;28;20477;-69
2023/09/17 08:30:46;;;;;;;10.60;5.20;;;23.40;99.90;;;;;;5009930;28;20446;-67
2023/09/17 08:33:15;;;;;;;10.50;5.17;;;23.50;99.90;;;;;;5009650;28;20864;-67
2023/09/17 08:35:43;;;;;;;9.80;4.70;;;23.70;99.90;;;;;;5009417;28;20509;-67
2023/09/17 08:38:11;;;;;;;9.53;5.17;;;23.70;99.90;;;;;;5009236;28;20477;-68
2023/09/17 08:40:42;;;;;;;9.90;5.57;;;23.70;99.90;;;;;;5009511;28;21009;-69
2023/09/17 08:43:10;;;;;;;10.40;5.20;;;23.60;99.90;;;;;;5009182;28;20500;-70
2023/09/17 08:45:38;;;;;;;10.27;5.57;;;23.60;99.90;;;;;;5009424;28;20485;-70
2023/09/17 08:48:08;;;;;;;11.10;5.40;;;23.70;99.90;;;;;;5008397;28;20470;-69
2023/09/17 08:50:36;;;;;;;10.70;5.40;;;23.80;99.90;;;;;;5009455;28;20465;-68
2023/09/17 08:53:08;;;;;;;11.10;5.13;;;24.10;99.90;;;;;;5008969;28;20937;-69
2023/09/17 08:55:36;;;;;;;9.37;4.83;;;24.30;99.90;;;;;;5009117;28;20446;-70
2023/09/17 08:58:12;;;;;;;10.70;4.60;;;24.50;99.90;;;;;;5007900;28;20466;-70
2023/09/17 09:00:45;;;;;;;11.10;4.67;;;24.70;99.90;;;;;;5012608;28;20474;-70
2023/09/17 09:03:17;;;;;;;10.40;4.50;;;24.90;99.90;;;;;;5011944;28;20500;-70
2023/09/17 09:05:50;;;;;;;10.47;4.30;;;25.10;99.90;;;;;;5012523;28;20481;-69
2023/09/17 09:08:18;;;;;;;12.27;5.30;;;25.40;99.90;;;;;;5014078;28;20469;-69
2023/09/17 09:10:47;;;;;;;9.63;5.07;;;25.70;99.90;;;;;;5011930;28;20460;-70
2023/09/17 09:13:16;;;;;;;9.60;5.07;;;26.30;99.90;;;;;;5012618;28;20453;-68
2023/09/17 09:15:44;;;;;;;11.30;5.70;;;26.60;99.90;;;;;;5012750;28;20452;-68
2023/09/17 09:18:12;;;;;;;9.97;4.63;;;26.90;99.90;;;;;;5012384;28;20469;-68
2023/09/17 09:20:42;;;;;;;11.80;4.63;;;27.20;99.90;;;;;;5012853;28;20456;-68
2023/09/17 09:23:10;;;;;;;10.17;3.97;;;27.70;99.90;;;;;;5012790;28;20450;-70
2023/09/17 09:25:38;;;;;;;9.33;4.60;;;28.00;99.90;;;;;;5012975;28;20485;-68
2023/09/17 09:28:06;;;;;;;10.10;4.27;;;28.40;99.90;;;;;;5012294;28;20469;-69
2023/09/17 09:30:36;;;;;;;10.90;4.67;;;28.50;99.90;;;;;;5013279;28;20539;-70
2023/09/17 09:33:05;;;;;;;10.73;4.20;;;28.50;99.90;;;;;;5012588;28;20504;-69
2023/09/17 09:35:34;;;;;;;9.37;4.30;;;28.80;99.90;;;;;;5012671;28;20445;-68
2023/09/17 09:38:03;;;;;;;8.97;4.30;;;29.20;99.40;;;;;;5008796;28;20544;-69
2023/09/17 09:40:34;;;;;;;11.40;4.60;;;29.10;97.90;;;;;;5011992;28;20473;-70
2023/09/17 09:43:03;;;;;;;10.60;4.27;;;28.90;97.30;;;;;;5017449;28;20444;-70
2023/09/17 09:45:31;;;;;;;9.10;3.87;;;28.90;99.20;;;;;;5012081;28;20489;-69
2023/09/17 09:47:59;;;;;;;10.90;4.07;;;29.10;96.70;;;;;;5006961;28;20473;-68
2023/09/17 09:50:30;;;;;;;11.33;4.07;;;29.40;95.40;;;;;;5010530;28;20457;-70
2023/09/17 09:52:59;;;;;;;14.10;3.83;;;29.60;95.20;;;;;;5010140;28;20880;-68
2023/09/17 09:55:29;;;;;;;10.53;3.63;;;29.80;93.60;;;;;;5015028;28;20476;-69
2023/09/17 09:57:57;;;;;;;10.80;4.17;;;30.20;91.40;;;;;;5008153;28;20473;-69
2023/09/17 10:00:28;;;;;;;11.60;4.10;;;30.40;91.60;;;;;;5010360;28;20449;-70
2023/09/17 10:03:00;;;;;;;8.40;3.50;;;30.70;89.10;;;;;;5009774;28;20453;-69
2023/09/17 10:05:33;;;;;;;8.40;3.60;;;31.00;86.20;;;;;;5008810;28;20493;-70
2023/09/17 10:08:05;;;;;;;10.60;3.53;;;31.10;83.80;;;;;;5009038;28;20508;-69
2023/09/17 10:10:36;;;;;;;9.60;3.27;;;31.20;82.60;;;;;;5012456;28;20442;-70
2023/09/17 10:13:08;;;;;;;9.43;4.10;;;31.50;80.00;;;;;;5005177;28;21080;-70
2023/09/17 10:15:37;;;;;;;8.40;3.40;;;31.70;80.70;;;;;;5008260;28;20450;-71
2023/09/17 10:18:06;;;;;;;8.43;3.80;;;31.80;83.70;;;;;;5006736;28;20462;-70
2023/09/17 10:20:35;;;;;;;9.50;3.67;;;32.00;79.40;;;;;;5008249;28;20536;-69
2023/09/17 10:23:06;;;;;;;10.60;3.93;;;32.20;76.90;;;;;;5007248;28;20460;-70
2023/09/17 10:25:36;;;;;;;10.20;3.50;;;32.40;75.80;;;;;;5008287;28;20848;-71
2023/09/17 10:28:07;;;;;;;10.10;3.37;;;32.70;73.50;;;;;;5006907;28;20466;-69
2023/09/17 10:30:35;;;;;;;10.80;3.80;;;32.80;72.00;;;;;;5008268;28;20442;-70
2023/09/17 10:33:07;;;;;;;10.43;3.80;;;33.00;68.40;;;;;;5008384;28;20949;-70
2023/09/17 10:35:36;;;;;;;15.93;3.67;;;33.20;68.50;;;;;;5006947;28;20537;-70
2023/09/17 10:38:07;;;;;;;8.47;2.70;;;33.30;65.80;;;;;;5009211;28;20472;-70
2023/09/17 10:40:37;;;;;;;9.27;4.10;;;33.30;64.80;;;;;;5008180;28;20536;-70
2023/09/17 10:43:08;;;;;;;9.73;3.27;;;33.30;65.10;;;;;;5007908;28;20438;-70
2023/09/17 10:45:37;;;;;;;9.40;3.27;;;33.50;64.90;;;;;;5008073;28;20488;-70
2023/09/17 10:48:07;;;;;;;11.77;3.90;;;33.70;61.80;;;;;;5006826;28;21047;-71
2023/09/17 10:50:37;;;;;;;10.80;3.03;;;33.70;60.10;;;;;;5007067;28;20454;-71
2023/09/17 10:53:05;;;;;;;9.37;3.07;;;33.70;59.60;;;;;;5007033;28;20434;-69
2023/09/17 10:55:40;;;;;;;9.97;3.27;;;33.80;60.60;;;;;;5007416;28;20449;-71
2023/09/17 10:58:15;;;;;;;9.90;3.57;;;34.00;60.20;;;;;;5007006;28;20714;-70
2023/09/17 11:00:44;;;;;;;9.83;3.20;;;34.10;58.90;;;;;;5007973;28;20450;-69
2023/09/17 11:03:18;;;;;;;8.50;2.77;;;34.20;58.80;;;;;;5006740;28;20438;-71
2023/09/17 11:05:47;;;;;;;9.63;3.97;;;34.20;58.40;;;;;;5004165;28;20539;-71
2023/09/17 11:08:16;;;;;;;9.30;3.30;;;34.50;57.90;;;;;;5005228;28;20541;-70
2023/09/17 11:10:46;;;;;;;9.43;2.60;;;34.80;57.90;;;;;;5005365;28;20463;-70
2023/09/17 11:13:15;;;;;;;10.40;3.33;;;35.00;54.80;;;;;;5005436;28;20454;-70
2023/09/17 11:15:43;;;;;;;10.30;2.97;;;34.90;56.30;;;;;;5004771;28;20442;-70
2023/09/17 11:18:11;;;;;;;9.73;3.20;;;35.00;53.00;;;;;;5005013;28;20573;-70
2023/09/17 11:20:58;;;;;;;8.00;2.73;;;35.20;55.30;;;;;;5005965;28;20449;-70
2023/09/17 11:23:42;;;;;;;9.90;3.10;;;35.40;55.00;;;;;;5006591;28;21016;-71
2023/09/17 11:26:14;;;;;;;9.30;2.80;;;35.80;54.60;;;;;;5005763;28;20492;-70
2023/09/17 11:28:42;;;;;;;10.80;3.43;;;36.10;54.00;;;;;;5003311;28;21072;-70
2023/09/17 11:31:14;;;;;;;8.80;2.77;;;36.40;53.90;;;;;;5003046;28;20820;-71
2023/09/17 11:33:44;;;;;;;9.73;3.10;;;36.80;51.60;;;;;;5005736;28;20442;-70
2023/09/17 11:36:12;;;;;;;9.03;2.80;;;37.00;50.20;;;;;;5004554;28;20496;-70
2023/09/17 11:38:46;;;;;;;8.70;3.37;;;37.10;50.60;;;;;;5006193;28;20462;-69
2023/09/17 11:41:18;;;;;;;11.90;2.60;;;37.40;50.30;;;;;;5005620;28;20438;-70
2023/09/17 11:43:47;;;;;;;8.07;2.60;;;37.50;47.90;;;;;;5006663;28;20822;-68
2023/09/17 11:46:16;;;;;;;8.80;2.87;;;37.60;46.60;;;;;;5005562;28;20477;-70
2023/09/17 11:48:45;;;;;;;9.50;2.70;;;37.30;49.90;;;;;;5006048;28;20469;-69
2023/09/17 11:51:25;;;;;;;9.10;2.67;;;37.00;48.50;;;;;;5003874;28;20884;-73
2023/09/17 11:53:56;;;;;;;8.93;2.90;;;36.80;47.70;;;;;;5004267;28;20572;-69
2023/09/17 11:56:28;;;;;;;7.00;1.90;;;36.80;47.50;;;;;;5005458;28;20442;-69
2023/09/17 11:59:04;;;;;;;9.93;2.50;;;36.60;45.10;;;;;;5003088;28;20569;-71
2023/09/17 12:01:36;;;;;;;9.90;2.27;;;36.60;47.20;;;;;;5002885;28;20953;-70
2023/09/17 12:04:06;;;;;;;9.60;2.80;;;36.60;48.20;;;;;;5005496;28;20446;-69
2023/09/17 12:06:37;;;;;;;9.03;2.10;;;36.70;48.10;;;;;;5005572;28;20473;-69
2023/09/17 12:09:15;;;;;;;11.53;2.60;;;37.00;45.40;;;;;;5005184;28;20484;-69
2023/09/17 12:11:47;;;;;;;10.07;3.30;;;36.90;47.00;;;;;;5004172;28;20449;-69
2023/09/17 12:14:15;;;;;;;8.13;2.40;;;37.10;46.90;;;;;;5002939;28;20457;-73
2023/09/17 12:16:44;;;;;;;7.90;2.17;;;37.00;46.30;;;;;;5003331;28;21031;-69
2023/09/17 12:19:12;;;;;;;10.43;2.40;;;36.90;47.40;;;;;;5005971;28;20477;-71
2023/09/17 12:21:48;;;;;;;8.53;2.43;;;36.70;45.30;;;;;;5006063;28;20887;-69
2023/09/17 12:24:23;;;;;;;10.63;2.50;;;36.60;47.30;;;;;;5005125;28;20854;-71
2023/09/17 12:27:14;;;;;;;7.80;2.40;;;36.40;44.90;;;;;;5003704;28;20560;-69
2023/09/17 12:29:42;;;;;;;8.00;2.70;;;36.20;47.00;;;;;;5003157;28;20477;-70
2023/09/17 12:32:11;;;;;;;9.00;2.60;;;36.20;45.40;;;;;;5005674;28;20452;-69
2023/09/17 12:34:39;;;;;;;9.23;2.17;;;36.30;48.90;;;;;;5004322;28;20561;-71
2023/09/17 12:37:09;;;;;;;10.37;3.33;;;36.50;47.30;;;;;;5004796;28;20862;-68
2023/09/17 12:39:37;;;;;;;9.33;2.70;;;36.70;46.60;;;;;;5004907;28;20446;-70
2023/09/17 12:42:06;;;;;;;9.93;2.87;;;37.20;45.70;;;;;;5006663;28;20892;-70
2023/09/17 12:44:34;;;;;;;7.17;3.00;;;37.40;45.20;;;;;;5004550;28;20458;-69
2023/09/17 12:47:04;;;;;;;7.90;2.60;;;37.60;46.00;;;;;;5007159;28;20535;-70
2023/09/17 12:49:33;;;;;;;9.60;2.60;;;38.00;45.70;;;;;;5004876;28;20477;-69